createdAt,value
2022-10-24T00:07:40.470Z,421.86545
2022-10-24T00:22:43.009Z,107.34969
2022-10-24T00:37:45.780Z,76.27478
2022-10-24T00:52:48.193Z,18.83328
2022-10-24T01:07:50.404Z,1.88333
2022-10-24T01:22:52.759Z,0
2022-10-24T01:37:54.974Z,0
2022-10-24T01:52:57.187Z,0
2022-10-24T02:07:59.436Z,0
2022-10-24T02:23:01.673Z,0
2022-10-24T02:38:03.967Z,0
2022-10-24T02:53:06.244Z,0
2022-10-24T03:08:08.537Z,0
2022-10-24T03:23:10.921Z,0
2022-10-24T03:38:13.226Z,0
2022-10-24T03:53:15.593Z,0
2022-10-24T04:08:17.974Z,0
2022-10-24T04:23:20.477Z,0
2022-10-24T04:38:22.779Z,0
2022-10-24T04:53:25.080Z,0
2022-10-24T05:08:27.391Z,0
2022-10-24T05:23:29.648Z,0
2022-10-24T05:38:31.949Z,0
2022-10-24T05:53:34.318Z,0
2022-10-24T06:08:36.620Z,0
2022-10-24T06:23:39.010Z,0
2022-10-24T06:38:41.331Z,0
2022-10-24T06:53:43.605Z,0
2022-10-24T07:08:45.906Z,0
2022-10-24T07:23:48.181Z,0
2022-10-24T07:38:50.688Z,0
2022-10-24T07:53:52.994Z,0
2022-10-24T08:08:55.328Z,0
2022-10-24T08:23:57.613Z,0
2022-10-24T08:39:00.008Z,0
2022-10-24T08:54:02.357Z,0
2022-10-24T09:09:04.667Z,0
2022-10-24T09:24:07.055Z,0
2022-10-24T09:39:09.461Z,0
2022-10-24T09:54:11.947Z,0
2022-10-24T10:09:14.157Z,0
2022-10-24T10:24:16.381Z,0
2022-10-24T10:39:18.707Z,0
2022-10-24T10:54:21.091Z,0
2022-10-24T11:09:23.611Z,0
2022-10-24T11:24:25.921Z,0
2022-10-24T11:39:28.205Z,0
2022-10-24T11:54:30.501Z,0
2022-10-24T12:09:34.467Z,0
2022-10-24T12:24:37.122Z,0
2022-10-24T12:39:39.514Z,0
2022-10-24T12:54:41.745Z,0
2022-10-24T13:09:43.996Z,0
2022-10-24T13:24:46.503Z,0
2022-10-24T13:39:48.895Z,0
2022-10-24T13:54:56.211Z,0
2022-10-24T14:09:59.049Z,0.94166
2022-10-24T14:25:01.331Z,4.70832
2022-10-24T14:40:03.996Z,16.00829
2022-10-24T14:55:06.396Z,32.01657
2022-10-24T15:10:12.044Z,65.91647
2022-10-24T15:25:15.709Z,130.89128
2022-10-24T15:40:18.008Z,215.64104
2022-10-24T15:55:20.402Z,215.64104
2022-10-24T16:10:22.758Z,238.24097
2022-10-24T16:25:25.115Z,306.04077
2022-10-24T16:40:27.401Z,396.44052
2022-10-24T16:55:29.716Z,552.75671
2022-10-24T17:10:32.044Z,789.11438
2022-10-24T17:25:34.378Z,706.24792
2022-10-24T17:40:36.676Z,1086.68018
2022-10-24T17:55:46.105Z,831.48926
2022-10-24T18:10:49.381Z,990.63043
2022-10-24T18:25:51.678Z,913.414
2022-10-24T18:40:54.109Z,677.99805
2022-10-24T18:55:56.553Z,535.80676
2022-10-24T19:10:59.020Z,1128.1134
2022-10-24T19:26:01.430Z,1711.0033
2022-10-24T19:41:03.637Z,1241.11304
2022-10-24T19:56:05.942Z,1510.42896
2022-10-24T20:11:08.313Z,1892.74451
2022-10-24T20:26:10.577Z,3124.44092
2022-10-24T20:41:12.925Z,1995.38586
2022-10-24T20:56:15.315Z,3484.15649
2022-10-24T21:11:17.663Z,1806.11145
2022-10-24T21:26:20.012Z,809.83099
2022-10-24T21:41:22.357Z,1177.07996
2022-10-24T21:56:24.732Z,578.18164
2022-10-24T22:11:27.086Z,394.55719
2022-10-24T22:26:29.342Z,522.62347
2022-10-24T22:41:31.663Z,447.29037
2022-10-24T22:56:33.967Z,431.28207
2022-10-24T23:11:36.303Z,222.23268
2022-10-24T23:26:38.615Z,147.84123
2022-10-24T23:41:40.849Z,97.93304
2022-10-24T23:56:43.264Z,86.63308
